sensor_id;sensor_type;location;lat;lon;timestamp;P1;durP1;ratioP1;P2;durP2;ratioP2
912;SDS011;443;51.448;7.028;2023-02-15T00:01:55;15.47;;;10.93;;
912;SDS011;443;51.448;7.028;2023-02-15T00:04:23;15.77;;;10.20;;
912;SDS011;443;51.448;7.028;2023-02-15T00:07:11;15.73;;;10.10;;
912;SDS011;443;51.448;7.028;2023-02-15T00:09:39;14.30;;;9.63;;
912;SDS011;443;51.448;7.028;2023-02-15T00:12:06;16.43;;;10.20;;
912;SDS011;443;51.448;7.028;2023-02-15T00:14:33;12.90;;;11.20;;
912;SDS011;443;51.448;7.028;2023-02-15T00:17:01;19.90;;;11.63;;
912;SDS011;443;51.448;7.028;2023-02-15T00:19:28;14.30;;;10.63;;
912;SDS011;443;51.448;7.028;2023-02-15T00:21:54;14.97;;;10.43;;
912;SDS011;443;51.448;7.028;2023-02-15T00:24:21;15.63;;;9.90;;
912;SDS011;443;51.448;7.028;2023-02-15T00:26:48;14.03;;;10.10;;
912;SDS011;443;51.448;7.028;2023-02-15T00:29:16;15.70;;;10.67;;
912;SDS011;443;51.448;7.028;2023-02-15T00:31:45;13.10;;;9.23;;
912;SDS011;443;51.448;7.028;2023-02-15T00:34:15;15.20;;;9.93;;
912;SDS011;443;51.448;7.028;2023-02-15T00:36:43;19.10;;;11.60;;
912;SDS011;443;51.448;7.028;2023-02-15T00:39:10;13.73;;;11.73;;
912;SDS011;443;51.448;7.028;2023-02-15T00:41:38;17.03;;;10.80;;
912;SDS011;443;51.448;7.028;2023-02-15T00:44:05;15.53;;;10.30;;
912;SDS011;443;51.448;7.028;2023-02-15T00:46:32;17.73;;;10.27;;
912;SDS011;443;51.448;7.028;2023-02-15T00:48:59;13.60;;;10.37;;
912;SDS011;443;51.448;7.028;2023-02-15T00:51:27;17.00;;;10.97;;
912;SDS011;443;51.448;7.028;2023-02-15T00:53:55;16.43;;;11.33;;
912;SDS011;443;51.448;7.028;2023-02-15T00:56:21;19.03;;;11.53;;
912;SDS011;443;51.448;7.028;2023-02-15T00:58:48;16.60;;;10.60;;
912;SDS011;443;51.448;7.028;2023-02-15T01:01:16;13.10;;;9.77;;
912;SDS011;443;51.448;7.028;2023-02-15T01:03:44;13.07;;;10.80;;
912;SDS011;443;51.448;7.028;2023-02-15T01:06:12;12.40;;;8.80;;
912;SDS011;443;51.448;7.028;2023-02-15T01:08:40;13.60;;;10.27;;
912;SDS011;443;51.448;7.028;2023-02-15T01:11:08;17.37;;;9.97;;
912;SDS011;443;51.448;7.028;2023-02-15T01:13:37;13.37;;;9.00;;
912;SDS011;443;51.448;7.028;2023-02-15T01:16:04;12.80;;;9.80;;
912;SDS011;443;51.448;7.028;2023-02-15T01:18:31;14.77;;;9.43;;
912;SDS011;443;51.448;7.028;2023-02-15T01:20:58;14.37;;;10.40;;
912;SDS011;443;51.448;7.028;2023-02-15T01:23:25;11.53;;;7.90;;
912;SDS011;443;51.448;7.028;2023-02-15T01:25:55;11.17;;;9.00;;
912;SDS011;443;51.448;7.028;2023-02-15T01:28:28;13.03;;;10.03;;
912;SDS011;443;51.448;7.028;2023-02-15T01:30:55;14.30;;;10.40;;
912;SDS011;443;51.448;7.028;2023-02-15T01:33:22;15.67;;;10.40;;
912;SDS011;443;51.448;7.028;2023-02-15T01:35:48;15.50;;;10.17;;
912;SDS011;443;51.448;7.028;2023-02-15T01:38:22;15.73;;;11.03;;
912;SDS011;443;51.448;7.028;2023-02-15T01:40:50;13.90;;;10.33;;
912;SDS011;443;51.448;7.028;2023-02-15T01:43:18;14.30;;;10.67;;
912;SDS011;443;51.448;7.028;2023-02-15T01:45:45;11.70;;;8.93;;
912;SDS011;443;51.448;7.028;2023-02-15T01:48:17;15.70;;;11.53;;
912;SDS011;443;51.448;7.028;2023-02-15T01:50:47;14.43;;;9.77;;
912;SDS011;443;51.448;7.028;2023-02-15T01:53:19;15.70;;;11.00;;
912;SDS011;443;51.448;7.028;2023-02-15T01:55:49;13.77;;;10.73;;
912;SDS011;443;51.448;7.028;2023-02-15T01:58:23;14.17;;;11.43;;
912;SDS011;443;51.448;7.028;2023-02-15T02:00:52;13.87;;;10.37;;
912;SDS011;443;51.448;7.028;2023-02-15T02:03:20;13.30;;;9.73;;
912;SDS011;443;51.448;7.028;2023-02-15T02:05:56;14.20;;;9.83;;
912;SDS011;443;51.448;7.028;2023-02-15T02:08:23;13.27;;;9.33;;
912;SDS011;443;51.448;7.028;2023-02-15T02:10:50;15.00;;;10.30;;
912;SDS011;443;51.448;7.028;2023-02-15T02:13:17;12.50;;;9.00;;
912;SDS011;443;51.448;7.028;2023-02-15T02:15:46;14.70;;;9.73;;
912;SDS011;443;51.448;7.028;2023-02-15T02:18:24;12.73;;;8.97;;
912;SDS011;443;51.448;7.028;2023-02-15T02:27:15;13.03;;;9.40;;
912;SDS011;443;51.448;7.028;2023-02-15T02:36:14;16.83;;;10.70;;
912;SDS011;443;51.448;7.028;2023-02-15T02:38:48;16.03;;;10.03;;
912;SDS011;443;51.448;7.028;2023-02-15T02:41:26;14.23;;;10.13;;
912;SDS011;443;51.448;7.028;2023-02-15T02:43:59;15.07;;;10.17;;
912;SDS011;443;51.448;7.028;2023-02-15T02:46:34;15.00;;;9.60;;
912;SDS011;443;51.448;7.028;2023-02-15T02:49:06;15.23;;;9.33;;
912;SDS011;443;51.448;7.028;2023-02-15T02:51:32;15.27;;;10.83;;
912;SDS011;443;51.448;7.028;2023-02-15T02:53:59;19.73;;;10.27;;
912;SDS011;443;51.448;7.028;2023-02-15T02:56:31;17.73;;;10.97;;
912;SDS011;443;51.448;7.028;2023-02-15T02:59:04;15.33;;;9.13;;
912;SDS011;443;51.448;7.028;2023-02-15T03:01:37;13.47;;;9.80;;
912;SDS011;443;51.448;7.028;2023-02-15T03:04:11;15.50;;;10.00;;
912;SDS011;443;51.448;7.028;2023-02-15T03:06:42;14.30;;;10.70;;
912;SDS011;443;51.448;7.028;2023-02-15T03:09:14;21.47;;;11.60;;
912;SDS011;443;51.448;7.028;2023-02-15T03:11:44;16.87;;;10.40;;
912;SDS011;443;51.448;7.028;2023-02-15T03:14:12;12.93;;;10.57;;
912;SDS011;443;51.448;7.028;2023-02-15T03:16:40;16.87;;;10.83;;
912;SDS011;443;51.448;7.028;2023-02-15T03:19:14;12.50;;;9.33;;
912;SDS011;443;51.448;7.028;2023-02-15T03:21:44;16.00;;;10.93;;
912;SDS011;443;51.448;7.028;2023-02-15T03:24:15;17.10;;;11.33;;
912;SDS011;443;51.448;7.028;2023-02-15T03:26:48;23.57;;;12.10;;
912;SDS011;443;51.448;7.028;2023-02-15T03:29:18;14.43;;;11.40;;
912;SDS011;443;51.448;7.028;2023-02-15T03:31:49;14.73;;;10.60;;
912;SDS011;443;51.448;7.028;2023-02-15T03:34:22;15.23;;;10.17;;
912;SDS011;443;51.448;7.028;2023-02-15T03:36:50;15.63;;;9.93;;
912;SDS011;443;51.448;7.028;2023-02-15T03:39:24;16.07;;;10.60;;
912;SDS011;443;51.448;7.028;2023-02-15T03:41:59;16.33;;;10.93;;
912;SDS011;443;51.448;7.028;2023-02-15T03:44:35;15.27;;;10.90;;
912;SDS011;443;51.448;7.028;2023-02-15T03:47:05;17.10;;;11.00;;
912;SDS011;443;51.448;7.028;2023-02-15T03:49:40;15.13;;;10.90;;
912;SDS011;443;51.448;7.028;2023-02-15T03:52:10;17.53;;;11.20;;
912;SDS011;443;51.448;7.028;2023-02-15T03:54:40;20.10;;;13.70;;
912;SDS011;443;51.448;7.028;2023-02-15T03:57:12;15.00;;;10.63;;
912;SDS011;443;51.448;7.028;2023-02-15T03:59:59;12.90;;;10.00;;
912;SDS011;443;51.448;7.028;2023-02-15T04:02:50;17.47;;;10.50;;
912;SDS011;443;51.448;7.028;2023-02-15T04:05:27;14.73;;;10.20;;
912;SDS011;443;51.448;7.028;2023-02-15T04:07:55;19.03;;;11.50;;
912;SDS011;443;51.448;7.028;2023-02-15T04:10:23;16.00;;;11.20;;
912;SDS011;443;51.448;7.028;2023-02-15T04:13:07;13.60;;;10.00;;
912;SDS011;443;51.448;7.028;2023-02-15T04:15:34;22.07;;;12.40;;
912;SDS011;443;51.448;7.028;2023-02-15T04:18:18;18.30;;;11.90;;
912;SDS011;443;51.448;7.028;2023-02-15T04:20:46;16.53;;;11.53;;
912;SDS011;443;51.448;7.028;2023-02-15T04:23:30;18.13;;;11.57;;
912;SDS011;443;51.448;7.028;2023-02-15T04:26:15;14.03;;;10.70;;
912;SDS011;443;51.448;7.028;2023-02-15T04:28:42;14.00;;;11.37;;
912;SDS011;443;51.448;7.028;2023-02-15T04:31:08;14.67;;;10.77;;
912;SDS011;443;51.448;7.028;2023-02-15T04:33:35;21.53;;;12.03;;
912;SDS011;443;51.448;7.028;2023-02-15T04:36:04;15.57;;;10.27;;
912;SDS011;443;51.448;7.028;2023-02-15T04:38:31;15.10;;;11.07;;
912;SDS011;443;51.448;7.028;2023-02-15T04:41:00;14.80;;;11.30;;
912;SDS011;443;51.448;7.028;2023-02-15T04:43:26;16.80;;;11.37;;
912;SDS011;443;51.448;7.028;2023-02-15T04:45:53;15.23;;;10.17;;
912;SDS011;443;51.448;7.028;2023-02-15T04:48:20;20.17;;;11.73;;
912;SDS011;443;51.448;7.028;2023-02-15T04:50:47;17.80;;;11.77;;
912;SDS011;443;51.448;7.028;2023-02-15T04:53:15;17.57;;;11.77;;
912;SDS011;443;51.448;7.028;2023-02-15T04:55:43;20.17;;;10.73;;
912;SDS011;443;51.448;7.028;2023-02-15T04:58:10;19.37;;;12.07;;
912;SDS011;443;51.448;7.028;2023-02-15T05:00:38;14.67;;;10.70;;
912;SDS011;443;51.448;7.028;2023-02-15T05:03:05;15.67;;;11.40;;
912;SDS011;443;51.448;7.028;2023-02-15T05:05:32;18.53;;;11.67;;
912;SDS011;443;51.448;7.028;2023-02-15T05:07:59;18.40;;;11.10;;
912;SDS011;443;51.448;7.028;2023-02-15T05:10:27;19.60;;;11.60;;
912;SDS011;443;51.448;7.028;2023-02-15T05:12:54;16.90;;;11.20;;
912;SDS011;443;51.448;7.028;2023-02-15T05:15:20;15.93;;;11.17;;
912;SDS011;443;51.448;7.028;2023-02-15T05:17:47;16.77;;;11.90;;
912;SDS011;443;51.448;7.028;2023-02-15T05:20:14;16.17;;;10.27;;
912;SDS011;443;51.448;7.028;2023-02-15T05:22:41;15.93;;;11.77;;
912;SDS011;443;51.448;7.028;2023-02-15T05:25:08;18.00;;;12.40;;
912;SDS011;443;51.448;7.028;2023-02-15T05:27:54;14.70;;;10.60;;
912;SDS011;443;51.448;7.028;2023-02-15T05:30:38;16.97;;;12.23;;
912;SDS011;443;51.448;7.028;2023-02-15T05:33:05;17.43;;;12.93;;
912;SDS011;443;51.448;7.028;2023-02-15T05:35:32;19.33;;;12.33;;
912;SDS011;443;51.448;7.028;2023-02-15T05:38:00;16.87;;;11.73;;
912;SDS011;443;51.448;7.028;2023-02-15T05:40:26;15.43;;;13.30;;
912;SDS011;443;51.448;7.028;2023-02-15T05:42:55;21.37;;;11.80;;
912;SDS011;443;51.448;7.028;2023-02-15T05:45:22;14.73;;;11.80;;
912;SDS011;443;51.448;7.028;2023-02-15T05:47:49;23.83;;;14.00;;
912;SDS011;443;51.448;7.028;2023-02-15T05:50:16;22.27;;;13.30;;
912;SDS011;443;51.448;7.028;2023-02-15T05:52:43;21.87;;;14.93;;
912;SDS011;443;51.448;7.028;2023-02-15T05:55:09;17.73;;;12.47;;
912;SDS011;443;51.448;7.028;2023-02-15T05:57:37;19.13;;;13.57;;
912;SDS011;443;51.448;7.028;2023-02-15T06:00:06;20.23;;;14.57;;
912;SDS011;443;51.448;7.028;2023-02-15T06:02:34;19.47;;;11.90;;
912;SDS011;443;51.448;7.028;2023-02-15T06:05:02;16.23;;;11.00;;
912;SDS011;443;51.448;7.028;2023-02-15T06:07:30;18.63;;;12.70;;
912;SDS011;443;51.448;7.028;2023-02-15T06:09:57;19.10;;;12.17;;
912;SDS011;443;51.448;7.028;2023-02-15T06:12:23;18.87;;;12.50;;
912;SDS011;443;51.448;7.028;2023-02-15T06:14:50;18.40;;;12.07;;
912;SDS011;443;51.448;7.028;2023-02-15T06:17:19;14.77;;;11.40;;
912;SDS011;443;51.448;7.028;2023-02-15T06:19:46;16.93;;;12.60;;
912;SDS011;443;51.448;7.028;2023-02-15T06:22:13;16.13;;;11.87;;
912;SDS011;443;51.448;7.028;2023-02-15T06:24:40;17.80;;;11.60;;
912;SDS011;443;51.448;7.028;2023-02-15T06:27:07;16.17;;;11.83;;
912;SDS011;443;51.448;7.028;2023-02-15T06:29:34;17.80;;;12.87;;
912;SDS011;443;51.448;7.028;2023-02-15T06:32:01;15.23;;;11.90;;
912;SDS011;443;51.448;7.028;2023-02-15T06:34:29;20.20;;;11.90;;
912;SDS011;443;51.448;7.028;2023-02-15T06:36:56;15.70;;;10.70;;
912;SDS011;443;51.448;7.028;2023-02-15T06:39:23;15.67;;;11.70;;
912;SDS011;443;51.448;7.028;2023-02-15T06:41:50;14.00;;;11.83;;
912;SDS011;443;51.448;7.028;2023-02-15T06:44:17;17.13;;;12.20;;
912;SDS011;443;51.448;7.028;2023-02-15T06:46:43;17.67;;;12.27;;
912;SDS011;443;51.448;7.028;2023-02-15T06:49:10;18.40;;;12.80;;
912;SDS011;443;51.448;7.028;2023-02-15T06:51:38;17.10;;;12.47;;
912;SDS011;443;51.448;7.028;2023-02-15T06:54:05;21.70;;;13.30;;
912;SDS011;443;51.448;7.028;2023-02-15T06:56:32;20.80;;;13.80;;
912;SDS011;443;51.448;7.028;2023-02-15T06:58:59;21.77;;;13.70;;
912;SDS011;443;51.448;7.028;2023-02-15T07:01:26;22.47;;;13.67;;
912;SDS011;443;51.448;7.028;2023-02-15T07:03:53;18.50;;;12.60;;
912;SDS011;443;51.448;7.028;2023-02-15T07:06:20;23.27;;;14.77;;
912;SDS011;443;51.448;7.028;2023-02-15T07:08:48;19.93;;;14.40;;
912;SDS011;443;51.448;7.028;2023-02-15T07:11:15;21.20;;;14.83;;
912;SDS011;443;51.448;7.028;2023-02-15T07:13:59;22.13;;;13.87;;
912;SDS011;443;51.448;7.028;2023-02-15T07:16:26;20.20;;;15.10;;
912;SDS011;443;51.448;7.028;2023-02-15T07:18:53;16.73;;;13.77;;
912;SDS011;443;51.448;7.028;2023-02-15T07:21:20;18.57;;;14.00;;
912;SDS011;443;51.448;7.028;2023-02-15T07:23:46;25.87;;;17.20;;
912;SDS011;443;51.448;7.028;2023-02-15T07:26:14;21.17;;;15.20;;
912;SDS011;443;51.448;7.028;2023-02-15T07:28:41;23.30;;;15.70;;
912;SDS011;443;51.448;7.028;2023-02-15T07:31:08;26.33;;;17.30;;
912;SDS011;443;51.448;7.028;2023-02-15T07:33:35;26.20;;;17.13;;
912;SDS011;443;51.448;7.028;2023-02-15T07:36:02;25.53;;;17.90;;
912;SDS011;443;51.448;7.028;2023-02-15T07:38:31;24.87;;;17.80;;
912;SDS011;443;51.448;7.028;2023-02-15T07:41:01;30.53;;;18.10;;
912;SDS011;443;51.448;7.028;2023-02-15T07:43:30;26.87;;;20.13;;
912;SDS011;443;51.448;7.028;2023-02-15T07:45:58;26.97;;;17.97;;
912;SDS011;443;51.448;7.028;2023-02-15T07:48:25;24.13;;;17.60;;
912;SDS011;443;51.448;7.028;2023-02-15T07:50:52;29.67;;;20.50;;
912;SDS011;443;51.448;7.028;2023-02-15T07:53:19;25.63;;;18.53;;
912;SDS011;443;51.448;7.028;2023-02-15T07:55:46;28.47;;;19.90;;
912;SDS011;443;51.448;7.028;2023-02-15T07:58:14;29.03;;;20.33;;
912;SDS011;443;51.448;7.028;2023-02-15T08:00:41;26.80;;;17.97;;
912;SDS011;443;51.448;7.028;2023-02-15T08:03:22;27.50;;;19.07;;
912;SDS011;443;51.448;7.028;2023-02-15T08:05:54;26.43;;;18.67;;
912;SDS011;443;51.448;7.028;2023-02-15T08:08:23;29.77;;;19.83;;
912;SDS011;443;51.448;7.028;2023-02-15T08:10:57;30.23;;;20.40;;
912;SDS011;443;51.448;7.028;2023-02-15T08:13:44;27.63;;;19.63;;
912;SDS011;443;51.448;7.028;2023-02-15T08:16:18;22.27;;;16.57;;
912;SDS011;443;51.448;7.028;2023-02-15T08:18:46;23.43;;;17.03;;
912;SDS011;443;51.448;7.028;2023-02-15T08:21:13;28.40;;;17.93;;
912;SDS011;443;51.448;7.028;2023-02-15T08:23:40;27.27;;;18.00;;
912;SDS011;443;51.448;7.028;2023-02-15T08:26:07;24.87;;;17.97;;
912;SDS011;443;51.448;7.028;2023-02-15T08:28:34;27.33;;;18.57;;
912;SDS011;443;51.448;7.028;2023-02-15T08:31:05;22.40;;;16.67;;
912;SDS011;443;51.448;7.028;2023-02-15T08:33:32;24.57;;;17.90;;
912;SDS011;443;51.448;7.028;2023-02-15T08:36:02;27.07;;;17.83;;
912;SDS011;443;51.448;7.028;2023-02-15T08:38:29;28.43;;;16.90;;
912;SDS011;443;51.448;7.028;2023-02-15T08:40:56;30.27;;;17.50;;
912;SDS011;443;51.448;7.028;2023-02-15T08:43:23;23.80;;;17.37;;
912;SDS011;443;51.448;7.028;2023-02-15T08:45:50;28.00;;;17.57;;
912;SDS011;443;51.448;7.028;2023-02-15T08:48:18;21.10;;;14.90;;
912;SDS011;443;51.448;7.028;2023-02-15T08:50:45;25.77;;;15.53;;
912;SDS011;443;51.448;7.028;2023-02-15T08:53:12;20.93;;;14.23;;
912;SDS011;443;51.448;7.028;2023-02-15T08:55:38;21.57;;;14.47;;
912;SDS011;443;51.448;7.028;2023-02-15T08:58:05;20.93;;;15.40;;
912;SDS011;443;51.448;7.028;2023-02-15T09:00:32;26.33;;;15.50;;
912;SDS011;443;51.448;7.028;2023-02-15T09:03:00;20.40;;;13.70;;
912;SDS011;443;51.448;7.028;2023-02-15T09:05:28;23.97;;;15.53;;
912;SDS011;443;51.448;7.028;2023-02-15T09:07:55;23.47;;;16.07;;
912;SDS011;443;51.448;7.028;2023-02-15T09:10:21;21.40;;;15.70;;
912;SDS011;443;51.448;7.028;2023-02-15T09:12:48;24.87;;;15.40;;
912;SDS011;443;51.448;7.028;2023-02-15T09:15:16;20.10;;;15.13;;
912;SDS011;443;51.448;7.028;2023-02-15T09:17:43;23.80;;;16.20;;
912;SDS011;443;51.448;7.028;2023-02-15T09:20:10;28.00;;;14.40;;
912;SDS011;443;51.448;7.028;2023-02-15T09:22:38;21.03;;;14.83;;
912;SDS011;443;51.448;7.028;2023-02-15T09:25:05;19.50;;;12.90;;
912;SDS011;443;51.448;7.028;2023-02-15T09:27:32;19.03;;;13.30;;
912;SDS011;443;51.448;7.028;2023-02-15T09:29:59;22.90;;;12.97;;
912;SDS011;443;51.448;7.028;2023-02-15T09:32:26;25.23;;;12.60;;
912;SDS011;443;51.448;7.028;2023-02-15T09:34:52;14.53;;;11.00;;
912;SDS011;443;51.448;7.028;2023-02-15T09:37:19;19.33;;;11.60;;
912;SDS011;443;51.448;7.028;2023-02-15T09:39:47;17.57;;;10.93;;
912;SDS011;443;51.448;7.028;2023-02-15T09:42:24;21.00;;;12.40;;
912;SDS011;443;51.448;7.028;2023-02-15T09:45:18;21.33;;;12.70;;
912;SDS011;443;51.448;7.028;2023-02-15T09:47:58;20.17;;;12.50;;
912;SDS011;443;51.448;7.028;2023-02-15T09:50:43;20.20;;;11.30;;
912;SDS011;443;51.448;7.028;2023-02-15T09:53:24;18.60;;;11.63;;
912;SDS011;443;51.448;7.028;2023-02-15T09:56:06;20.40;;;11.10;;
912;SDS011;443;51.448;7.028;2023-02-15T09:58:42;17.47;;;11.53;;
912;SDS011;443;51.448;7.028;2023-02-15T10:01:19;21.03;;;10.87;;
912;SDS011;443;51.448;7.028;2023-02-15T10:03:59;16.50;;;10.67;;
912;SDS011;443;51.448;7.028;2023-02-15T10:06:40;16.87;;;11.17;;
912;SDS011;443;51.448;7.028;2023-02-15T10:09:22;16.37;;;9.10;;
912;SDS011;443;51.448;7.028;2023-02-15T10:12:04;17.30;;;10.17;;
912;SDS011;443;51.448;7.028;2023-02-15T10:14:47;17.43;;;9.17;;
912;SDS011;443;51.448;7.028;2023-02-15T10:17:29;14.20;;;10.50;;
912;SDS011;443;51.448;7.028;2023-02-15T10:20:13;16.23;;;10.07;;
912;SDS011;443;51.448;7.028;2023-02-15T10:22:57;16.37;;;10.37;;
912;SDS011;443;51.448;7.028;2023-02-15T10:25:43;13.37;;;8.10;;
912;SDS011;443;51.448;7.028;2023-02-15T10:28:17;13.03;;;9.07;;
912;SDS011;443;51.448;7.028;2023-02-15T10:30:46;12.17;;;7.70;;
912;SDS011;443;51.448;7.028;2023-02-15T10:33:27;11.30;;;7.93;;
912;SDS011;443;51.448;7.028;2023-02-15T10:36:06;10.40;;;6.73;;
912;SDS011;443;51.448;7.028;2023-02-15T10:38:51;18.10;;;9.90;;
912;SDS011;443;51.448;7.028;2023-02-15T10:41:27;14.10;;;8.67;;
912;SDS011;443;51.448;7.028;2023-02-15T10:44:09;14.93;;;9.37;;
912;SDS011;443;51.448;7.028;2023-02-15T10:46:54;14.73;;;8.30;;
912;SDS011;443;51.448;7.028;2023-02-15T10:49:36;13.97;;;8.83;;
912;SDS011;443;51.448;7.028;2023-02-15T10:52:19;16.20;;;7.93;;
912;SDS011;443;51.448;7.028;2023-02-15T10:54:56;14.07;;;8.00;;
912;SDS011;443;51.448;7.028;2023-02-15T10:57:32;15.83;;;9.47;;
912;SDS011;443;51.448;7.028;2023-02-15T11:00:15;12.07;;;8.73;;
912;SDS011;443;51.448;7.028;2023-02-15T11:02:55;12.53;;;7.53;;
912;SDS011;443;51.448;7.028;2023-02-15T11:05:35;9.60;;;6.93;;
912;SDS011;443;51.448;7.028;2023-02-15T11:08:14;15.57;;;8.00;;
912;SDS011;443;51.448;7.028;2023-02-15T11:10:42;13.47;;;8.63;;
912;SDS011;443;51.448;7.028;2023-02-15T11:13:14;14.03;;;7.83;;
912;SDS011;443;51.448;7.028;2023-02-15T11:15:45;14.10;;;9.70;;
912;SDS011;443;51.448;7.028;2023-02-15T11:18:16;13.37;;;8.00;;
912;SDS011;443;51.448;7.028;2023-02-15T11:20:53;14.43;;;8.80;;
912;SDS011;443;51.448;7.028;2023-02-15T11:23:22;15.23;;;9.40;;
912;SDS011;443;51.448;7.028;2023-02-15T11:25:53;14.60;;;7.83;;
912;SDS011;443;51.448;7.028;2023-02-15T11:28:24;13.63;;;7.80;;
912;SDS011;443;51.448;7.028;2023-02-15T11:30:57;13.30;;;8.20;;
912;SDS011;443;51.448;7.028;2023-02-15T11:33:29;10.57;;;7.50;;
912;SDS011;443;51.448;7.028;2023-02-15T11:36:03;11.43;;;6.33;;
912;SDS011;443;51.448;7.028;2023-02-15T11:38:35;12.13;;;7.30;;
912;SDS011;443;51.448;7.028;2023-02-15T11:41:05;15.10;;;9.03;;
912;SDS011;443;51.448;7.028;2023-02-15T11:43:36;10.77;;;8.20;;
912;SDS011;443;51.448;7.028;2023-02-15T11:46:07;12.53;;;8.03;;
912;SDS011;443;51.448;7.028;2023-02-15T11:48:37;12.80;;;7.63;;
912;SDS011;443;51.448;7.028;2023-02-15T11:51:04;16.57;;;9.17;;
912;SDS011;443;51.448;7.028;2023-02-15T11:53:32;12.63;;;7.90;;
912;SDS011;443;51.448;7.028;2023-02-15T11:56:00;9.87;;;7.50;;
912;SDS011;443;51.448;7.028;2023-02-15T11:58:30;11.00;;;7.90;;
912;SDS011;443;51.448;7.028;2023-02-15T12:01:07;14.40;;;9.10;;
912;SDS011;443;51.448;7.028;2023-02-15T12:03:42;15.60;;;7.93;;
912;SDS011;443;51.448;7.028;2023-02-15T12:06:15;14.13;;;8.07;;
912;SDS011;443;51.448;7.028;2023-02-15T12:08:48;11.17;;;7.57;;
912;SDS011;443;51.448;7.028;2023-02-15T12:11:20;20.20;;;8.73;;
912;SDS011;443;51.448;7.028;2023-02-15T12:13:56;10.50;;;6.67;;
912;SDS011;443;51.448;7.028;2023-02-15T12:16:26;9.60;;;5.70;;
912;SDS011;443;51.448;7.028;2023-02-15T12:18:54;13.20;;;7.33;;
912;SDS011;443;51.448;7.028;2023-02-15T12:21:25;12.33;;;8.70;;
912;SDS011;443;51.448;7.028;2023-02-15T12:23:54;12.90;;;7.77;;
912;SDS011;443;51.448;7.028;2023-02-15T12:26:24;15.80;;;10.27;;
912;SDS011;443;51.448;7.028;2023-02-15T12:28:53;10.80;;;7.10;;
912;SDS011;443;51.448;7.028;2023-02-15T12:31:23;12.50;;;8.30;;
912;SDS011;443;51.448;7.028;2023-02-15T12:33:57;11.50;;;7.57;;
912;SDS011;443;51.448;7.028;2023-02-15T12:36:29;13.87;;;7.70;;
912;SDS011;443;51.448;7.028;2023-02-15T12:39:05;12.60;;;6.87;;
912;SDS011;443;51.448;7.028;2023-02-15T12:41:44;9.57;;;7.27;;
912;SDS011;443;51.448;7.028;2023-02-15T12:44:15;18.77;;;7.83;;
912;SDS011;443;51.448;7.028;2023-02-15T12:46:53;11.03;;;7.13;;
912;SDS011;443;51.448;7.028;2023-02-15T12:49:24;12.77;;;7.20;;
912;SDS011;443;51.448;7.028;2023-02-15T12:51:53;12.27;;;7.10;;
912;SDS011;443;51.448;7.028;2023-02-15T12:54:31;14.27;;;6.00;;
912;SDS011;443;51.448;7.028;2023-02-15T12:57:13;14.10;;;6.47;;
912;SDS011;443;51.448;7.028;2023-02-15T12:59:51;11.07;;;7.00;;
912;SDS011;443;51.448;7.028;2023-02-15T13:02:22;11.93;;;7.83;;
912;SDS011;443;51.448;7.028;2023-02-15T13:04:52;10.97;;;6.10;;
912;SDS011;443;51.448;7.028;2023-02-15T13:07:20;9.83;;;6.83;;
912;SDS011;443;51.448;7.028;2023-02-15T13:09:47;11.00;;;6.70;;
912;SDS011;443;51.448;7.028;2023-02-15T13:12:17;12.40;;;7.83;;
912;SDS011;443;51.448;7.028;2023-02-15T13:14:47;13.30;;;7.20;;
912;SDS011;443;51.448;7.028;2023-02-15T13:17:17;17.37;;;8.03;;
912;SDS011;443;51.448;7.028;2023-02-15T13:19:47;16.53;;;7.30;;
912;SDS011;443;51.448;7.028;2023-02-15T13:22:18;13.07;;;7.07;;
912;SDS011;443;51.448;7.028;2023-02-15T13:24:48;14.00;;;8.20;;
912;SDS011;443;51.448;7.028;2023-02-15T13:27:18;11.97;;;7.90;;
912;SDS011;443;51.448;7.028;2023-02-15T13:29:48;12.53;;;8.00;;
912;SDS011;443;51.448;7.028;2023-02-15T13:32:22;13.93;;;6.93;;
912;SDS011;443;51.448;7.028;2023-02-15T13:34:56;17.30;;;7.60;;
912;SDS011;443;51.448;7.028;2023-02-15T13:37:42;13.70;;;7.50;;
912;SDS011;443;51.448;7.028;2023-02-15T13:40:21;15.87;;;7.40;;
912;SDS011;443;51.448;7.028;2023-02-15T13:42:52;13.03;;;7.80;;
912;SDS011;443;51.448;7.028;2023-02-15T13:45:28;11.67;;;7.07;;
912;SDS011;443;51.448;7.028;2023-02-15T13:48:09;14.53;;;7.30;;
912;SDS011;443;51.448;7.028;2023-02-15T13:50:48;15.30;;;7.67;;
912;SDS011;443;51.448;7.028;2023-02-15T13:53:29;9.73;;;6.40;;
912;SDS011;443;51.448;7.028;2023-02-15T13:56:08;12.27;;;6.97;;
912;SDS011;443;51.448;7.028;2023-02-15T14:01:34;11.00;;;6.50;;
912;SDS011;443;51.448;7.028;2023-02-15T14:04:16;11.57;;;7.23;;
912;SDS011;443;51.448;7.028;2023-02-15T14:09:52;18.53;;;6.97;;
912;SDS011;443;51.448;7.028;2023-02-15T14:12:38;11.20;;;6.90;;
912;SDS011;443;51.448;7.028;2023-02-15T14:15:23;14.37;;;7.33;;
912;SDS011;443;51.448;7.028;2023-02-15T14:18:01;11.50;;;6.53;;
912;SDS011;443;51.448;7.028;2023-02-15T14:20:44;10.50;;;6.70;;
912;SDS011;443;51.448;7.028;2023-02-15T14:23:31;10.90;;;8.07;;
912;SDS011;443;51.448;7.028;2023-02-15T14:26:09;11.67;;;5.63;;
912;SDS011;443;51.448;7.028;2023-02-15T14:28:45;14.50;;;7.20;;
912;SDS011;443;51.448;7.028;2023-02-15T14:31:22;11.40;;;6.70;;
912;SDS011;443;51.448;7.028;2023-02-15T14:33:54;13.13;;;7.07;;
912;SDS011;443;51.448;7.028;2023-02-15T14:36:22;10.43;;;6.07;;
912;SDS011;443;51.448;7.028;2023-02-15T14:38:54;10.23;;;7.53;;
912;SDS011;443;51.448;7.028;2023-02-15T14:41:29;13.10;;;5.57;;
912;SDS011;443;51.448;7.028;2023-02-15T14:44:04;15.23;;;7.40;;
912;SDS011;443;51.448;7.028;2023-02-15T14:46:41;12.27;;;7.10;;
912;SDS011;443;51.448;7.028;2023-02-15T14:49:12;13.90;;;6.93;;
912;SDS011;443;51.448;7.028;2023-02-15T14:51:57;12.27;;;7.43;;
912;SDS011;443;51.448;7.028;2023-02-15T14:57:26;14.67;;;7.17;;
912;SDS011;443;51.448;7.028;2023-02-15T14:59:59;9.00;;;6.70;;
912;SDS011;443;51.448;7.028;2023-02-15T15:02:39;10.53;;;7.40;;
912;SDS011;443;51.448;7.028;2023-02-15T15:05:10;10.93;;;7.40;;
912;SDS011;443;51.448;7.028;2023-02-15T15:07:42;11.50;;;7.17;;
912;SDS011;443;51.448;7.028;2023-02-15T15:18:52;11.23;;;6.57;;
912;SDS011;443;51.448;7.028;2023-02-15T15:33:13;15.80;;;7.60;;
912;SDS011;443;51.448;7.028;2023-02-15T15:36:06;8.80;;;6.17;;
912;SDS011;443;51.448;7.028;2023-02-15T15:38:53;13.60;;;7.33;;
912;SDS011;443;51.448;7.028;2023-02-15T15:41:32;13.57;;;8.70;;
912;SDS011;443;51.448;7.028;2023-02-15T15:47:19;10.40;;;6.73;;
912;SDS011;443;51.448;7.028;2023-02-15T15:49:58;8.97;;;6.40;;
912;SDS011;443;51.448;7.028;2023-02-15T15:52:25;13.80;;;8.10;;
912;SDS011;443;51.448;7.028;2023-02-15T15:54:56;16.07;;;7.40;;
912;SDS011;443;51.448;7.028;2023-02-15T15:57:29;11.77;;;7.70;;
912;SDS011;443;51.448;7.028;2023-02-15T16:00:01;9.47;;;6.60;;
912;SDS011;443;51.448;7.028;2023-02-15T16:02:29;9.67;;;7.00;;
912;SDS011;443;51.448;7.028;2023-02-15T16:05:05;16.20;;;7.17;;
912;SDS011;443;51.448;7.028;2023-02-15T16:07:33;13.67;;;7.63;;
912;SDS011;443;51.448;7.028;2023-02-15T16:10:00;10.83;;;6.83;;
912;SDS011;443;51.448;7.028;2023-02-15T16:12:30;11.93;;;7.53;;
912;SDS011;443;51.448;7.028;2023-02-15T16:14:58;11.83;;;7.27;;
912;SDS011;443;51.448;7.028;2023-02-15T16:17:37;12.23;;;8.30;;
912;SDS011;443;51.448;7.028;2023-02-15T16:20:12;13.63;;;8.20;;
912;SDS011;443;51.448;7.028;2023-02-15T16:22:43;17.73;;;8.73;;
912;SDS011;443;51.448;7.028;2023-02-15T16:25:18;13.30;;;8.20;;
912;SDS011;443;51.448;7.028;2023-02-15T16:27:55;12.73;;;7.47;;
912;SDS011;443;51.448;7.028;2023-02-15T16:30:25;13.33;;;8.87;;
912;SDS011;443;51.448;7.028;2023-02-15T16:32:54;12.43;;;6.90;;
912;SDS011;443;51.448;7.028;2023-02-15T16:35:28;10.13;;;7.97;;